createdAt,value
2022-08-07T00:02:36.031Z,16.60
2022-08-07T00:04:11.377Z,16.50
2022-08-07T00:06:51.770Z,16.40
2022-08-07T00:09:24.699Z,16.40
2022-08-07T00:12:02.611Z,16.40
2022-08-07T00:14:31.674Z,16.40
2022-08-07T00:17:00.285Z,16.30
2022-08-07T00:20:00.108Z,16.30
2022-08-07T00:22:34.715Z,16.20
2022-08-07T00:25:10.959Z,16.30
2022-08-07T00:27:52.965Z,16.20
2022-08-07T00:30:27.289Z,16.10
2022-08-07T00:33:00.336Z,16.10
2022-08-07T00:35:29.833Z,16.00
2022-08-07T00:37:58.542Z,16.00
2022-08-07T00:40:39.604Z,16.10
2022-08-07T00:43:58.938Z,16.00
2022-08-07T00:46:00.330Z,15.90
2022-08-07T00:48:31.854Z,15.80
2022-08-07T00:51:00.482Z,15.70
2022-08-07T00:53:38.925Z,15.70
2022-08-07T00:56:15.771Z,15.60
2022-08-07T00:58:46.894Z,15.50
2022-08-07T01:01:15.280Z,15.60
2022-08-07T01:03:55.830Z,15.70
2022-08-07T01:06:30.399Z,15.60
2022-08-07T01:09:01.220Z,15.70
2022-08-07T01:12:23.739Z,15.60
2022-08-07T01:14:17.402Z,15.60
2022-08-07T01:16:49.138Z,15.50
2022-08-07T01:19:19.295Z,15.50
2022-08-07T01:21:48.251Z,15.50
2022-08-07T01:24:21.139Z,15.30
2022-08-07T01:26:52.127Z,15.20
2022-08-07T01:29:22.476Z,15.20
2022-08-07T01:31:50.832Z,15.20
2022-08-07T01:34:19.505Z,15.20
2022-08-07T01:36:52.598Z,15.10
2022-08-07T01:39:26.796Z,15.10
2022-08-07T01:42:39.014Z,15.10
2022-08-07T01:44:54.679Z,15.00
2022-08-07T01:48:20.647Z,15.10
2022-08-07T01:50:10.156Z,15.20
2022-08-07T01:52:49.305Z,15.30
2022-08-07T01:55:22.396Z,15.30
2022-08-07T01:58:06.083Z,15.20
2022-08-07T02:00:49.142Z,15.10
2022-08-07T02:03:26.433Z,15.00
2022-08-07T02:06:30.730Z,14.80
2022-08-07T02:08:54.223Z,14.80
2022-08-07T02:11:30.846Z,14.70
2022-08-07T02:14:11.224Z,14.60
2022-08-07T02:16:58.906Z,14.70
2022-08-07T02:20:05.628Z,14.60
2022-08-07T02:22:14.562Z,14.50
2022-08-07T02:24:48.577Z,14.50
2022-08-07T02:27:19.225Z,14.50
2022-08-07T02:29:48.942Z,14.40
2022-08-07T02:32:27.031Z,14.40
2022-08-07T02:34:58.896Z,14.40
2022-08-07T02:37:34.127Z,14.50
2022-08-07T02:40:29.739Z,14.50
2022-08-07T02:42:56.765Z,14.70
2022-08-07T02:46:00.953Z,14.60
2022-08-07T02:48:15.730Z,14.60
2022-08-07T02:50:46.355Z,14.50
2022-08-07T02:53:21.709Z,14.50
2022-08-07T02:56:03.587Z,14.40
2022-08-07T02:58:34.835Z,14.30
2022-08-07T03:01:04.040Z,14.30
2022-08-07T03:03:42.129Z,14.30
2022-08-07T03:06:25.844Z,14.20
2022-08-07T03:09:01.821Z,14.20
2022-08-07T03:11:32.729Z,14.10
2022-08-07T03:14:02.390Z,14.10
2022-08-07T03:16:31.317Z,14.10
2022-08-07T03:19:01.852Z,14.10
2022-08-07T03:21:32.809Z,14.10
2022-08-07T03:24:19.601Z,14.10
2022-08-07T03:26:54.615Z,14.10
2022-08-07T03:29:33.919Z,14.10
2022-08-07T03:32:07.548Z,14.00
2022-08-07T03:34:47.591Z,14.00
2022-08-07T03:37:32.839Z,14.00
2022-08-07T03:40:15.023Z,14.10
2022-08-07T03:42:43.860Z,14.10
2022-08-07T03:45:11.970Z,13.90
2022-08-07T03:47:48.016Z,13.90
2022-08-07T03:50:20.777Z,13.80
2022-08-07T03:52:52.096Z,13.90
2022-08-07T03:55:19.088Z,13.90
2022-08-07T03:58:33.261Z,13.70
2022-08-07T04:00:36.804Z,13.70
2022-08-07T04:03:05.714Z,13.50
2022-08-07T04:05:39.384Z,13.50
2022-08-07T04:08:11.567Z,13.50
2022-08-07T04:10:42.448Z,13.50
2022-08-07T04:13:22.481Z,13.50
2022-08-07T04:15:55.118Z,13.40
2022-08-07T04:18:58.386Z,13.40
2022-08-07T04:21:09.087Z,13.40
2022-08-07T04:23:43.973Z,13.40
2022-08-07T04:26:28.358Z,13.30
2022-08-07T04:28:55.907Z,13.30
2022-08-07T04:32:02.142Z,13.30
2022-08-07T04:34:16.679Z,13.30
2022-08-07T04:36:45.230Z,13.40
2022-08-07T04:39:12.585Z,13.40
2022-08-07T04:41:39.589Z,13.50
2022-08-07T04:44:12.083Z,13.60
2022-08-07T04:47:11.417Z,13.60
2022-08-07T04:50:06.138Z,13.70
2022-08-07T04:52:52.096Z,13.60
2022-08-07T04:58:15.790Z,13.70
2022-08-07T04:59:09.144Z,13.70
2022-08-07T05:01:51.671Z,13.80
2022-08-07T05:04:37.647Z,13.90
2022-08-07T05:07:20.979Z,14.00
2022-08-07T05:10:11.706Z,14.00
2022-08-07T05:14:44.567Z,14.10
2022-08-07T05:15:53.553Z,14.10
2022-08-07T05:18:23.226Z,14.20
2022-08-07T05:20:55.085Z,14.30
2022-08-07T05:23:35.478Z,14.40
2022-08-07T05:26:15.579Z,14.60
2022-08-07T05:28:50.295Z,14.70
2022-08-07T05:31:20.376Z,14.80
2022-08-07T05:34:01.470Z,14.90
2022-08-07T05:36:35.799Z,15.00
2022-08-07T05:39:09.051Z,15.10
2022-08-07T05:42:02.290Z,15.20
2022-08-07T05:44:34.492Z,15.20
2022-08-07T05:47:02.117Z,15.30
2022-08-07T05:49:49.913Z,15.40
2022-08-07T05:52:20.332Z,15.40
2022-08-07T05:54:55.738Z,15.50
2022-08-07T05:57:26.575Z,15.50
2022-08-07T06:00:00.331Z,15.60
2022-08-07T06:02:33.093Z,15.60
2022-08-07T06:05:05.200Z,15.70
2022-08-07T06:08:09.255Z,15.80
2022-08-07T06:10:21.972Z,15.90
2022-08-07T06:13:13.320Z,15.90
2022-08-07T06:15:43.224Z,16.00
2022-08-07T06:18:13.792Z,16.10
2022-08-07T06:20:50.980Z,16.20
2022-08-07T06:24:36.776Z,16.20
2022-08-07T06:26:21.933Z,16.40
2022-08-07T06:28:59.007Z,16.50
2022-08-07T06:31:47.209Z,16.70
2022-08-07T06:34:13.407Z,16.80
2022-08-07T06:36:40.428Z,17.00
2022-08-07T06:40:17.187Z,17.10
2022-08-07T06:42:06.363Z,17.10
2022-08-07T06:44:36.845Z,17.20
2022-08-07T06:47:12.486Z,17.30
2022-08-07T06:49:52.246Z,17.30
2022-08-07T06:52:31.516Z,17.40
2022-08-07T06:55:33.827Z,17.50
2022-08-07T06:58:04.525Z,17.50
2022-08-07T07:00:36.882Z,17.70
2022-08-07T07:03:10.871Z,17.80
2022-08-07T07:06:05.016Z,17.90
2022-08-07T07:08:31.268Z,18.00
2022-08-07T07:11:01.648Z,18.10
2022-08-07T07:13:57.905Z,18.20
2022-08-07T07:16:33.377Z,18.50
2022-08-07T07:19:54.398Z,18.70
2022-08-07T07:22:05.028Z,18.70
2022-08-07T07:24:43.206Z,18.80
2022-08-07T07:27:35.379Z,18.90
2022-08-07T07:30:32.442Z,19.10
2022-08-07T07:33:04.911Z,19.10
2022-08-07T07:35:54.137Z,19.20
2022-08-07T07:38:25.941Z,19.30
2022-08-07T07:41:02.339Z,19.40
2022-08-07T07:44:14.567Z,19.50
2022-08-07T07:46:36.936Z,19.50
2022-08-07T07:50:32.645Z,19.60
2022-08-07T07:51:59.890Z,19.90
2022-08-07T07:54:29.460Z,20.00
2022-08-07T07:56:57.863Z,20.00
2022-08-07T07:59:52.481Z,20.10
2022-08-07T08:02:22.338Z,20.20
2022-08-07T08:05:04.012Z,20.20
2022-08-07T08:07:35.346Z,20.10
2022-08-07T08:10:14.964Z,20.10
2022-08-07T08:13:00.621Z,20.20
2022-08-07T08:15:58.030Z,20.20
2022-08-07T08:18:24.462Z,20.40
2022-08-07T08:20:52.606Z,20.70
2022-08-07T08:23:40.962Z,20.70
2022-08-07T08:26:28.016Z,20.80
2022-08-07T08:28:59.385Z,20.90
2022-08-07T08:32:17.540Z,21.10
2022-08-07T08:34:28.886Z,21.20
2022-08-07T08:37:03.053Z,21.40
2022-08-07T08:39:39.398Z,21.40
2022-08-07T08:42:26.987Z,21.60
2022-08-07T08:45:04.255Z,22.00
2022-08-07T08:47:54.767Z,22.30
2022-08-07T08:50:35.008Z,22.60
2022-08-07T08:53:19.224Z,22.80
2022-08-07T08:56:02.604Z,22.90
2022-08-07T08:58:45.862Z,22.90
2022-08-07T09:01:29.559Z,22.90
2022-08-07T09:04:00.377Z,23.00
2022-08-07T09:06:48.414Z,23.30
2022-08-07T09:09:43.334Z,23.30
2022-08-07T09:12:33.156Z,23.20
2022-08-07T09:16:24.390Z,23.40
2022-08-07T09:18:58.549Z,23.50
2022-08-07T09:21:33.742Z,23.60
2022-08-07T09:24:58.647Z,23.50
2022-08-07T09:27:59.701Z,23.60
2022-08-07T09:30:34.482Z,23.90
2022-08-07T09:33:16.516Z,24.30
2022-08-07T09:36:07.725Z,24.50
2022-08-07T09:39:54.448Z,24.40
2022-08-07T09:42:41.070Z,24.70
2022-08-07T09:47:26.353Z,25.20
2022-08-07T09:50:00.530Z,25.60
2022-08-07T09:52:16.462Z,25.90
2022-08-07T09:54:49.847Z,25.70
2022-08-07T09:57:46.456Z,25.70
2022-08-07T10:00:21.631Z,25.90
2022-08-07T10:04:05.497Z,26.00
2022-08-07T10:06:55.673Z,25.70
2022-08-07T10:09:59.279Z,25.60
2022-08-07T10:12:52.919Z,25.30
2022-08-07T10:15:26.351Z,25.20
2022-08-07T10:18:33.481Z,25.10
2022-08-07T10:22:12.196Z,25.00
2022-08-07T10:24:27.629Z,25.10
2022-08-07T10:27:06.645Z,25.20
2022-08-07T10:30:07.169Z,25.30
2022-08-07T10:33:00.329Z,25.30
2022-08-07T10:35:55.307Z,25.20
2022-08-07T10:38:47.831Z,25.20
2022-08-07T10:41:52.224Z,25.30
2022-08-07T10:44:39.429Z,25.20
2022-08-07T10:47:53.266Z,25.60
2022-08-07T10:50:29.740Z,26.00
2022-08-07T10:53:43.988Z,25.90
2022-08-07T10:56:31.057Z,26.10
2022-08-07T10:59:25.873Z,26.60
2022-08-07T11:02:05.033Z,26.80
2022-08-07T11:04:39.623Z,26.80
2022-08-07T11:07:59.536Z,26.90
2022-08-07T11:11:00.006Z,27.10
2022-08-07T11:14:42.152Z,27.70
2022-08-07T11:16:51.281Z,27.70
2022-08-07T11:19:55.380Z,27.90
2022-08-07T11:22:46.613Z,28.30
2022-08-07T11:25:16.415Z,28.60
2022-08-07T11:28:01.162Z,28.30
2022-08-07T11:30:45.147Z,28.20
2022-08-07T11:33:18.432Z,28.10
2022-08-07T11:36:13.536Z,27.60
2022-08-07T11:38:53.704Z,27.20
2022-08-07T11:41:29.722Z,27.00
2022-08-07T11:44:27.284Z,27.20
2022-08-07T11:47:13.836Z,27.70
2022-08-07T11:50:32.505Z,28.10
2022-08-07T11:52:55.236Z,28.00
2022-08-07T11:56:25.507Z,27.70
2022-08-07T11:58:52.576Z,27.80
2022-08-07T12:02:00.094Z,28.10
2022-08-07T12:04:45.993Z,27.90
2022-08-07T12:07:27.287Z,28.40
2022-08-07T12:10:05.578Z,28.80
2022-08-07T12:12:41.236Z,29.40
2022-08-07T12:15:58.034Z,29.70
2022-08-07T12:18:29.678Z,29.40
2022-08-07T12:21:07.721Z,29.50
2022-08-07T12:24:06.728Z,29.80
2022-08-07T12:26:53.195Z,30.10
2022-08-07T12:29:37.812Z,30.00
2022-08-07T12:32:25.544Z,29.20
2022-08-07T12:34:56.072Z,28.30
2022-08-07T12:37:28.244Z,28.00
2022-08-07T12:40:44.873Z,28.10
2022-08-07T12:43:09.554Z,28.00
2022-08-07T12:45:44.955Z,27.70
2022-08-07T12:48:41.471Z,28.00
2022-08-07T12:51:21.292Z,28.40
2022-08-07T12:54:37.316Z,28.80
2022-08-07T12:56:56.386Z,29.10
2022-08-07T12:59:55.030Z,29.30
2022-08-07T13:03:01.314Z,29.50
2022-08-07T13:06:02.757Z,29.20
2022-08-07T13:08:48.988Z,29.30
2022-08-07T13:12:02.213Z,29.40
2022-08-07T13:14:29.189Z,29.30
2022-08-07T13:17:10.843Z,28.90
2022-08-07T13:20:21.724Z,28.70
2022-08-07T13:24:02.854Z,28.90
2022-08-07T13:26:26.456Z,29.10
2022-08-07T13:29:06.639Z,28.90
2022-08-07T13:31:57.561Z,28.50
2022-08-07T13:34:38.184Z,28.70
2022-08-07T13:37:21.716Z,29.00
2022-08-07T13:40:36.188Z,29.10
2022-08-07T13:43:11.953Z,28.80
2022-08-07T13:46:12.455Z,28.60
2022-08-07T13:48:35.016Z,28.20
2022-08-07T13:51:27.799Z,27.90
2022-08-07T13:54:00.772Z,27.60
2022-08-07T13:56:35.297Z,27.50
2022-08-07T13:59:12.359Z,27.50
2022-08-07T14:02:03.473Z,28.00
2022-08-07T14:04:35.741Z,28.10
2022-08-07T14:07:09.124Z,28.00
2022-08-07T14:10:17.449Z,28.10
2022-08-07T14:12:36.150Z,28.40
2022-08-07T14:15:18.723Z,28.60
2022-08-07T14:18:12.543Z,28.80
2022-08-07T14:20:48.893Z,28.60
2022-08-07T14:23:59.616Z,28.70
2022-08-07T14:26:28.211Z,29.20
2022-08-07T14:29:08.728Z,29.40
2022-08-07T14:31:56.547Z,29.40
2022-08-07T14:34:29.945Z,29.20
2022-08-07T14:37:01.703Z,29.00
2022-08-07T14:40:18.233Z,28.80
2022-08-07T14:42:32.494Z,28.70
2022-08-07T14:47:58.782Z,28.40
2022-08-07T14:50:28.000Z,28.80
2022-08-07T14:52:57.088Z,29.20
2022-08-07T14:55:55.294Z,29.20
2022-08-07T14:58:27.518Z,29.60
2022-08-07T15:00:55.694Z,30.00
2022-08-07T15:06:21.015Z,30.30
2022-08-07T15:08:54.857Z,30.50
2022-08-07T15:11:53.705Z,30.80
2022-08-07T15:14:17.780Z,30.80
2022-08-07T15:20:31.585Z,30.90
2022-08-07T15:22:33.555Z,30.70
2022-08-07T15:28:32.963Z,30.90
2022-08-07T15:30:59.413Z,31.00
2022-08-07T15:33:35.976Z,31.10
2022-08-07T15:36:05.742Z,31.10
2022-08-07T15:44:21.387Z,31.40
2022-08-07T15:46:58.923Z,31.20
2022-08-07T15:52:30.367Z,29.90
2022-08-07T15:55:03.551Z,29.80
2022-08-07T15:57:39.856Z,29.60
2022-08-07T16:00:31.680Z,29.30
2022-08-07T16:03:21.762Z,29.60
2022-08-07T16:06:02.154Z,29.50
2022-08-07T16:08:38.524Z,29.30
2022-08-07T16:11:27.139Z,29.20
2022-08-07T16:14:07.249Z,29.30
2022-08-07T16:16:56.806Z,29.30
2022-08-07T16:20:00.015Z,29.30
2022-08-07T16:22:38.167Z,29.40
2022-08-07T16:25:54.807Z,29.80
2022-08-07T16:30:07.390Z,30.10
2022-08-07T16:31:50.919Z,29.80
2022-08-07T16:34:36.692Z,29.80
2022-08-07T16:38:03.892Z,30.20
2022-08-07T16:40:57.108Z,29.70
2022-08-07T16:44:04.102Z,29.20
2022-08-07T16:47:12.019Z,29.40
2022-08-07T16:50:35.417Z,29.30
2022-08-07T16:53:55.543Z,29.40
2022-08-07T16:56:25.445Z,29.40
2022-08-07T16:59:10.676Z,29.80
2022-08-07T17:01:50.505Z,30.00
2022-08-07T17:04:57.792Z,30.10
2022-08-07T17:07:55.994Z,30.10
2022-08-07T17:10:32.192Z,30.00
2022-08-07T17:13:38.901Z,29.80
2022-08-07T17:16:44.669Z,29.40
2022-08-07T17:20:01.604Z,29.20
2022-08-07T17:22:42.484Z,28.90
2022-08-07T17:25:51.793Z,28.60
2022-08-07T17:28:19.461Z,28.40
2022-08-07T17:31:16.292Z,28.30
2022-08-07T17:34:15.072Z,28.10
2022-08-07T17:36:58.360Z,27.70
2022-08-07T17:40:08.140Z,27.40
2022-08-07T17:42:59.314Z,27.20
2022-08-07T17:45:36.058Z,27.10
2022-08-07T17:48:12.815Z,27.10
2022-08-07T17:51:04.832Z,27.00
2022-08-07T17:54:06.343Z,27.00
2022-08-07T17:56:49.374Z,26.90
2022-08-07T17:59:35.972Z,26.80
2022-08-07T18:02:32.732Z,26.90
2022-08-07T18:05:20.723Z,27.00
2022-08-07T18:08:10.024Z,27.10
2022-08-07T18:12:06.635Z,27.20
2022-08-07T18:13:54.046Z,27.30
2022-08-07T18:16:57.618Z,27.30
2022-08-07T18:21:07.527Z,27.20
2022-08-07T18:22:40.409Z,27.20
2022-08-07T18:25:39.308Z,27.10
2022-08-07T18:28:33.952Z,27.20
2022-08-07T18:31:18.433Z,27.10
2022-08-07T18:34:39.380Z,27.00
2022-08-07T18:38:56.529Z,26.80
2022-08-07T18:40:50.238Z,26.60
2022-08-07T18:43:58.156Z,26.30
2022-08-07T18:46:46.205Z,26.10
2022-08-07T18:50:30.966Z,26.00
2022-08-07T18:53:02.899Z,25.80
2022-08-07T18:56:02.438Z,25.70
2022-08-07T18:59:00.090Z,25.60
2022-08-07T19:02:32.372Z,25.60
2022-08-07T19:05:15.444Z,25.50
2022-08-07T19:08:07.103Z,25.40
2022-08-07T19:10:52.632Z,25.30
2022-08-07T19:13:24.304Z,25.20
2022-08-07T19:17:04.091Z,25.10
2022-08-07T19:19:32.068Z,25.10
2022-08-07T19:22:15.709Z,25.10
2022-08-07T19:24:48.339Z,25.00
2022-08-07T19:28:56.654Z,24.90
2022-08-07T19:31:00.843Z,24.80
2022-08-07T19:33:13.197Z,24.70
2022-08-07T19:35:46.232Z,24.50
2022-08-07T19:38:17.706Z,24.30
2022-08-07T19:40:49.843Z,24.30
2022-08-07T19:43:43.671Z,24.10
2022-08-07T19:46:11.236Z,24.00
2022-08-07T19:48:54.126Z,23.90
2022-08-07T19:51:52.091Z,23.90
2022-08-07T19:54:34.268Z,23.80
2022-08-07T19:58:00.721Z,23.70
2022-08-07T19:59:59.333Z,23.50
2022-08-07T20:03:00.584Z,23.30
2022-08-07T20:05:59.666Z,23.10
2022-08-07T20:08:28.502Z,23.10
2022-08-07T20:11:03.884Z,23.00
2022-08-07T20:13:43.120Z,22.80
2022-08-07T20:16:22.375Z,22.80
2022-08-07T20:19:04.489Z,22.70
2022-08-07T20:21:46.589Z,22.50
2022-08-07T20:24:29.960Z,22.40
2022-08-07T20:27:02.478Z,22.20
2022-08-07T20:29:48.827Z,22.30
2022-08-07T20:32:40.308Z,22.30
2022-08-07T20:35:26.415Z,22.10
2022-08-07T20:37:59.735Z,22.00
2022-08-07T20:40:34.558Z,22.00
2022-08-07T20:43:14.927Z,21.90
2022-08-07T20:46:27.496Z,21.80
2022-08-07T20:48:58.131Z,21.70
2022-08-07T20:51:28.554Z,21.50
2022-08-07T20:54:11.976Z,21.40
2022-08-07T20:56:48.385Z,21.20
2022-08-07T21:00:05.675Z,21.20
2022-08-07T21:02:33.168Z,21.10
2022-08-07T21:05:01.832Z,21.00
2022-08-07T21:07:38.532Z,20.90
2022-08-07T21:10:11.548Z,20.70
2022-08-07T21:12:40.227Z,20.60
2022-08-07T21:15:18.638Z,20.50
2022-08-07T21:18:28.041Z,20.50
2022-08-07T21:20:39.680Z,20.50
2022-08-07T21:23:50.338Z,20.50
2022-08-07T21:26:23.826Z,20.40
2022-08-07T21:28:55.634Z,20.30
2022-08-07T21:31:49.376Z,20.20
2022-08-07T21:34:46.289Z,20.10
2022-08-07T21:37:25.937Z,20.00
2022-08-07T21:40:27.356Z,19.90
2022-08-07T21:43:10.590Z,19.80
2022-08-07T21:46:08.532Z,19.70
2022-08-07T21:48:57.692Z,19.80
2022-08-07T21:51:27.670Z,19.70
2022-08-07T21:54:10.088Z,19.70
2022-08-07T21:56:49.021Z,19.70
2022-08-07T22:00:04.487Z,19.60
2022-08-07T22:03:30.797Z,19.60
2022-08-07T22:06:01.383Z,19.60
2022-08-07T22:08:37.683Z,19.60
2022-08-07T22:11:08.314Z,19.50
2022-08-07T22:13:53.012Z,19.30
2022-08-07T22:16:45.058Z,19.20
2022-08-07T22:19:42.422Z,19.10
2022-08-07T22:22:28.712Z,19.00
2022-08-07T22:25:10.781Z,18.90
2022-08-07T22:28:07.801Z,18.80
2022-08-07T22:31:05.147Z,18.80
2022-08-07T22:33:53.020Z,18.60
2022-08-07T22:36:52.984Z,18.50
2022-08-07T22:39:29.414Z,18.40
2022-08-07T22:42:29.612Z,18.50
2022-08-07T22:44:59.981Z,18.50
2022-08-07T22:48:56.025Z,18.40
2022-08-07T22:51:43.415Z,18.30
2022-08-07T22:54:31.586Z,18.30
2022-08-07T22:57:33.366Z,18.20
2022-08-07T23:00:21.459Z,18.10
2022-08-07T23:03:58.381Z,18.10
2022-08-07T23:06:52.007Z,17.90
2022-08-07T23:10:04.377Z,17.80
2022-08-07T23:13:04.757Z,17.70
2022-08-07T23:16:06.725Z,17.60
2022-08-07T23:19:16.737Z,17.50
2022-08-07T23:22:02.700Z,17.50
2022-08-07T23:24:53.042Z,17.40
2022-08-07T23:28:20.310Z,17.30
2022-08-07T23:31:06.432Z,17.30
2022-08-07T23:34:34.748Z,17.30
2022-08-07T23:37:31.882Z,17.30
2022-08-07T23:40:49.362Z,17.20
2022-08-07T23:43:51.439Z,17.20
2022-08-07T23:46:53.257Z,17.10
2022-08-07T23:49:51.121Z,17.00
2022-08-07T23:53:01.039Z,17.00
2022-08-07T23:55:52.167Z,16.90
2022-08-07T23:58:47.320Z,16.80
